< < Back
Terminal Aerodrome Forecast


Current Version              Previous Versions:   1  2  3  4  5  6  7  8  9  

Terminal Aerodrome Forecast

293
FTUS42 KJAX 300521
TAFSSI
TAF
KSSI 300521Z 3006/0106 21006KT P6SM SCT250
     FM301700 25009KT P6SM VCSH SCT040
     FM301900 21011KT P6SM VCTS BKN040CB
     FM010200 24007KT P6SM SCT040 BKN100=

Latest METAR

015
SAUS70 KWBC 302100 RRG
MTRSSI
METAR KSSI 302053Z AUTO 24008KT 10SM -RA FEW050 BKN090 OVC110 24/21
A3004 RMK AO2 RAB18 SLP173 P0001 60001 T02390211 50013


USA.gov is the U.S. government's official web portal to all federal, state and local government web resources and services.